sensor_id;sensor_type;location;lat;lon;timestamp;temperature;humidity
8214;DHT22;4148;47.974;7.824;2024-03-02T00:01:55;4.40;1.00
8214;DHT22;4148;47.974;7.824;2024-03-02T00:04:23;4.40;99.90
8214;DHT22;4148;47.974;7.824;2024-03-02T00:06:51;4.60;1.00
8214;DHT22;4148;47.974;7.824;2024-03-02T00:09:20;4.60;99.90
8214;DHT22;4148;47.974;7.824;2024-03-02T00:11:49;4.60;99.90
8214;DHT22;4148;47.974;7.824;2024-03-02T00:14:17;4.60;99.90
8214;DHT22;4148;47.974;7.824;2024-03-02T00:16:45;4.60;99.90
8214;DHT22;4148;47.974;7.824;2024-03-02T00:19:13;4.60;99.90
8214;DHT22;4148;47.974;7.824;2024-03-02T00:21:41;4.70;99.90
8214;DHT22;4148;47.974;7.824;2024-03-02T00:24:21;4.50;1.00
8214;DHT22;4148;47.974;7.824;2024-03-02T00:26:55;4.50;99.90
8214;DHT22;4148;47.974;7.824;2024-03-02T00:29:23;4.40;35.60
8214;DHT22;4148;47.974;7.824;2024-03-02T00:31:51;4.40;1.00
8214;DHT22;4148;47.974;7.824;2024-03-02T00:34:20;4.40;99.90
8214;DHT22;4148;47.974;7.824;2024-03-02T00:36:48;4.30;1.00
8214;DHT22;4148;47.974;7.824;2024-03-02T00:39:17;4.20;44.10
8214;DHT22;4148;47.974;7.824;2024-03-02T00:41:45;4.00;1.00
8214;DHT22;4148;47.974;7.824;2024-03-02T00:44:15;3.80;1.00
8214;DHT22;4148;47.974;7.824;2024-03-02T00:46:43;3.90;1.00
8214;DHT22;4148;47.974;7.824;2024-03-02T00:49:18;3.80;99.90
8214;DHT22;4148;47.974;7.824;2024-03-02T00:51:48;4.00;1.00
8214;DHT22;4148;47.974;7.824;2024-03-02T00:54:19;4.20;99.90
8214;DHT22;4148;47.974;7.824;2024-03-02T00:56:48;4.20;1.00
8214;DHT22;4148;47.974;7.824;2024-03-02T00:59:17;4.30;1.00
8214;DHT22;4148;47.974;7.824;2024-03-02T01:01:45;4.30;99.90
8214;DHT22;4148;47.974;7.824;2024-03-02T01:04:13;4.10;99.90
8214;DHT22;4148;47.974;7.824;2024-03-02T01:06:42;3.90;99.90
8214;DHT22;4148;47.974;7.824;2024-03-02T01:09:10;4.10;99.90
8214;DHT22;4148;47.974;7.824;2024-03-02T01:11:39;4.00;99.90
8214;DHT22;4148;47.974;7.824;2024-03-02T01:14:07;4.00;99.90
8214;DHT22;4148;47.974;7.824;2024-03-02T01:16:36;4.10;99.90
8214;DHT22;4148;47.974;7.824;2024-03-02T01:19:04;4.00;99.90
8214;DHT22;4148;47.974;7.824;2024-03-02T01:21:32;4.00;18.30
8214;DHT22;4148;47.974;7.824;2024-03-02T01:24:00;4.00;99.90
8214;DHT22;4148;47.974;7.824;2024-03-02T01:26:28;3.90;99.90
8214;DHT22;4148;47.974;7.824;2024-03-02T01:28:57;4.00;1.00
8214;DHT22;4148;47.974;7.824;2024-03-02T01:31:25;4.00;99.90
8214;DHT22;4148;47.974;7.824;2024-03-02T01:33:54;3.70;1.00
8214;DHT22;4148;47.974;7.824;2024-03-02T01:36:22;3.60;1.00
8214;DHT22;4148;47.974;7.824;2024-03-02T01:38:50;3.80;1.00
8214;DHT22;4148;47.974;7.824;2024-03-02T01:41:18;3.80;1.00
8214;DHT22;4148;47.974;7.824;2024-03-02T01:43:46;3.70;57.80
8214;DHT22;4148;47.974;7.824;2024-03-02T01:46:14;3.50;99.90
8214;DHT22;4148;47.974;7.824;2024-03-02T01:48:42;3.40;99.90
8214;DHT22;4148;47.974;7.824;2024-03-02T01:51:11;3.60;1.00
8214;DHT22;4148;47.974;7.824;2024-03-02T01:53:39;3.50;45.20
8214;DHT22;4148;47.974;7.824;2024-03-02T01:56:07;3.60;99.90
8214;DHT22;4148;47.974;7.824;2024-03-02T01:58:35;3.80;99.90
8214;DHT22;4148;47.974;7.824;2024-03-02T02:01:03;3.80;1.00
8214;DHT22;4148;47.974;7.824;2024-03-02T02:03:32;3.70;99.90
8214;DHT22;4148;47.974;7.824;2024-03-02T02:06:00;3.70;99.90
8214;DHT22;4148;47.974;7.824;2024-03-02T02:08:29;3.80;99.90
8214;DHT22;4148;47.974;7.824;2024-03-02T02:10:57;3.80;99.90
8214;DHT22;4148;47.974;7.824;2024-03-02T02:13:25;3.80;99.90
8214;DHT22;4148;47.974;7.824;2024-03-02T02:15:53;3.80;99.90
8214;DHT22;4148;47.974;7.824;2024-03-02T02:18:21;3.70;99.90
8214;DHT22;4148;47.974;7.824;2024-03-02T02:20:49;3.70;1.00
8214;DHT22;4148;47.974;7.824;2024-03-02T02:23:19;3.80;99.90
8214;DHT22;4148;47.974;7.824;2024-03-02T02:25:46;3.70;1.00
8214;DHT22;4148;47.974;7.824;2024-03-02T02:28:14;3.80;99.90
8214;DHT22;4148;47.974;7.824;2024-03-02T02:30:42;3.70;99.90
8214;DHT22;4148;47.974;7.824;2024-03-02T02:33:10;3.80;1.00
8214;DHT22;4148;47.974;7.824;2024-03-02T02:35:38;3.70;99.90
8214;DHT22;4148;47.974;7.824;2024-03-02T02:38:06;3.70;99.90
8214;DHT22;4148;47.974;7.824;2024-03-02T02:40:35;3.90;1.00
8214;DHT22;4148;47.974;7.824;2024-03-02T02:43:03;3.90;99.90
8214;DHT22;4148;47.974;7.824;2024-03-02T02:45:31;3.90;99.90
8214;DHT22;4148;47.974;7.824;2024-03-02T02:47:59;3.80;99.90
8214;DHT22;4148;47.974;7.824;2024-03-02T02:50:29;3.80;94.50
8214;DHT22;4148;47.974;7.824;2024-03-02T02:52:57;3.80;99.90
8214;DHT22;4148;47.974;7.824;2024-03-02T02:55:25;3.80;1.00
8214;DHT22;4148;47.974;7.824;2024-03-02T02:57:54;3.90;1.00
8214;DHT22;4148;47.974;7.824;2024-03-02T03:00:22;3.90;96.80
8214;DHT22;4148;47.974;7.824;2024-03-02T03:02:50;3.90;1.00
8214;DHT22;4148;47.974;7.824;2024-03-02T03:05:18;3.80;99.90
8214;DHT22;4148;47.974;7.824;2024-03-02T03:07:46;3.90;91.70
8214;DHT22;4148;47.974;7.824;2024-03-02T03:10:17;3.90;99.90
8214;DHT22;4148;47.974;7.824;2024-03-02T03:12:45;3.80;1.00
8214;DHT22;4148;47.974;7.824;2024-03-02T03:15:15;3.80;99.90
8214;DHT22;4148;47.974;7.824;2024-03-02T03:17:43;3.80;99.90
8214;DHT22;4148;47.974;7.824;2024-03-02T03:20:13;3.90;99.90
8214;DHT22;4148;47.974;7.824;2024-03-02T03:22:42;3.90;99.90
8214;DHT22;4148;47.974;7.824;2024-03-02T03:25:10;4.00;1.00
8214;DHT22;4148;47.974;7.824;2024-03-02T03:27:37;4.10;42.10
8214;DHT22;4148;47.974;7.824;2024-03-02T03:30:06;3.90;1.00
8214;DHT22;4148;47.974;7.824;2024-03-02T03:32:36;3.90;99.90
8214;DHT22;4148;47.974;7.824;2024-03-02T03:35:05;4.00;15.90
8214;DHT22;4148;47.974;7.824;2024-03-02T03:37:33;3.80;1.00
8214;DHT22;4148;47.974;7.824;2024-03-02T03:40:02;3.90;1.00
8214;DHT22;4148;47.974;7.824;2024-03-02T03:42:34;4.00;1.00
8214;DHT22;4148;47.974;7.824;2024-03-02T03:45:02;4.00;1.00
8214;DHT22;4148;47.974;7.824;2024-03-02T03:47:31;4.10;99.90
8214;DHT22;4148;47.974;7.824;2024-03-02T03:50:00;4.00;1.00
8214;DHT22;4148;47.974;7.824;2024-03-02T03:52:31;3.90;1.00
8214;DHT22;4148;47.974;7.824;2024-03-02T03:54:59;3.80;99.90
8214;DHT22;4148;47.974;7.824;2024-03-02T03:57:27;3.90;99.90
8214;DHT22;4148;47.974;7.824;2024-03-02T03:59:55;3.90;1.00
8214;DHT22;4148;47.974;7.824;2024-03-02T04:02:23;3.90;99.90
8214;DHT22;4148;47.974;7.824;2024-03-02T04:04:52;3.70;1.00
8214;DHT22;4148;47.974;7.824;2024-03-02T04:07:21;3.80;1.00
8214;DHT22;4148;47.974;7.824;2024-03-02T04:09:49;3.80;1.00
8214;DHT22;4148;47.974;7.824;2024-03-02T04:12:17;3.80;1.00
8214;DHT22;4148;47.974;7.824;2024-03-02T04:14:44;3.80;1.00
8214;DHT22;4148;47.974;7.824;2024-03-02T04:17:13;3.80;12.40
8214;DHT22;4148;47.974;7.824;2024-03-02T04:19:40;3.70;1.00
8214;DHT22;4148;47.974;7.824;2024-03-02T04:22:08;3.70;13.10
8214;DHT22;4148;47.974;7.824;2024-03-02T04:24:48;3.70;1.00
8214;DHT22;4148;47.974;7.824;2024-03-02T04:27:16;3.80;99.90
8214;DHT22;4148;47.974;7.824;2024-03-02T04:29:44;3.80;1.00
8214;DHT22;4148;47.974;7.824;2024-03-02T04:32:12;3.80;15.20
8214;DHT22;4148;47.974;7.824;2024-03-02T04:34:40;3.70;1.00
8214;DHT22;4148;47.974;7.824;2024-03-02T04:37:08;3.70;99.90
8214;DHT22;4148;47.974;7.824;2024-03-02T04:39:36;3.80;80.40
8214;DHT22;4148;47.974;7.824;2024-03-02T04:42:05;3.90;99.90
8214;DHT22;4148;47.974;7.824;2024-03-02T04:44:33;4.00;99.90
8214;DHT22;4148;47.974;7.824;2024-03-02T04:47:01;4.00;1.00
8214;DHT22;4148;47.974;7.824;2024-03-02T04:49:29;4.00;1.00
8214;DHT22;4148;47.974;7.824;2024-03-02T04:51:58;4.20;1.00
8214;DHT22;4148;47.974;7.824;2024-03-02T04:54:26;4.20;99.90
8214;DHT22;4148;47.974;7.824;2024-03-02T04:56:53;4.30;99.90
8214;DHT22;4148;47.974;7.824;2024-03-02T04:59:23;4.30;99.90
8214;DHT22;4148;47.974;7.824;2024-03-02T05:01:51;4.20;99.90
8214;DHT22;4148;47.974;7.824;2024-03-02T05:04:18;4.10;1.00
8214;DHT22;4148;47.974;7.824;2024-03-02T05:06:46;4.30;99.90
8214;DHT22;4148;47.974;7.824;2024-03-02T05:09:20;4.40;1.00
8214;DHT22;4148;47.974;7.824;2024-03-02T05:11:48;4.30;47.20
8214;DHT22;4148;47.974;7.824;2024-03-02T05:14:38;4.40;99.90
8214;DHT22;4148;47.974;7.824;2024-03-02T05:17:05;4.30;1.00
8214;DHT22;4148;47.974;7.824;2024-03-02T05:19:33;4.20;99.90
8214;DHT22;4148;47.974;7.824;2024-03-02T05:22:01;4.30;99.90
8214;DHT22;4148;47.974;7.824;2024-03-02T05:24:29;4.40;53.90
8214;DHT22;4148;47.974;7.824;2024-03-02T05:26:57;4.30;1.00
8214;DHT22;4148;47.974;7.824;2024-03-02T05:29:26;4.30;1.00
8214;DHT22;4148;47.974;7.824;2024-03-02T05:31:55;4.30;99.90
8214;DHT22;4148;47.974;7.824;2024-03-02T05:34:23;4.40;1.00
8214;DHT22;4148;47.974;7.824;2024-03-02T05:36:51;4.50;1.00
8214;DHT22;4148;47.974;7.824;2024-03-02T05:39:19;4.60;99.90
8214;DHT22;4148;47.974;7.824;2024-03-02T05:41:47;4.60;1.00
8214;DHT22;4148;47.974;7.824;2024-03-02T05:44:15;4.60;99.90
8214;DHT22;4148;47.974;7.824;2024-03-02T05:46:43;4.50;60.60
8214;DHT22;4148;47.974;7.824;2024-03-02T05:49:12;4.60;99.90
8214;DHT22;4148;47.974;7.824;2024-03-02T05:51:40;4.80;99.90
8214;DHT22;4148;47.974;7.824;2024-03-02T05:54:08;4.80;99.90
8214;DHT22;4148;47.974;7.824;2024-03-02T05:56:36;4.80;99.90
8214;DHT22;4148;47.974;7.824;2024-03-02T05:59:04;4.90;1.00
8214;DHT22;4148;47.974;7.824;2024-03-02T06:01:39;5.00;99.90
8214;DHT22;4148;47.974;7.824;2024-03-02T06:04:07;4.90;1.00
8214;DHT22;4148;47.974;7.824;2024-03-02T06:06:37;4.90;99.90
8214;DHT22;4148;47.974;7.824;2024-03-02T06:09:06;5.00;99.90
8214;DHT22;4148;47.974;7.824;2024-03-02T06:11:34;4.90;1.00
8214;DHT22;4148;47.974;7.824;2024-03-02T06:14:03;4.90;1.00
8214;DHT22;4148;47.974;7.824;2024-03-02T06:16:31;4.90;1.00
8214;DHT22;4148;47.974;7.824;2024-03-02T06:18:59;5.00;76.90
8214;DHT22;4148;47.974;7.824;2024-03-02T06:21:28;5.20;99.90
8214;DHT22;4148;47.974;7.824;2024-03-02T06:23:57;5.30;99.90
8214;DHT22;4148;47.974;7.824;2024-03-02T06:26:25;5.30;99.90
8214;DHT22;4148;47.974;7.824;2024-03-02T06:28:53;5.30;99.90
8214;DHT22;4148;47.974;7.824;2024-03-02T06:31:21;5.30;99.90
8214;DHT22;4148;47.974;7.824;2024-03-02T06:33:48;5.30;99.90
8214;DHT22;4148;47.974;7.824;2024-03-02T06:36:16;5.30;1.00
8214;DHT22;4148;47.974;7.824;2024-03-02T06:38:44;5.30;1.00
8214;DHT22;4148;47.974;7.824;2024-03-02T06:41:13;5.40;29.70
8214;DHT22;4148;47.974;7.824;2024-03-02T06:43:41;5.40;1.00
8214;DHT22;4148;47.974;7.824;2024-03-02T06:46:09;5.40;1.00
8214;DHT22;4148;47.974;7.824;2024-03-02T06:48:41;5.40;1.00
8214;DHT22;4148;47.974;7.824;2024-03-02T06:51:09;5.40;99.90
8214;DHT22;4148;47.974;7.824;2024-03-02T06:53:37;5.50;1.00
8214;DHT22;4148;47.974;7.824;2024-03-02T06:56:06;5.50;1.00
8214;DHT22;4148;47.974;7.824;2024-03-02T06:58:36;5.60;1.00
8214;DHT22;4148;47.974;7.824;2024-03-02T07:01:04;5.60;1.00
8214;DHT22;4148;47.974;7.824;2024-03-02T07:03:32;5.70;99.90
8214;DHT22;4148;47.974;7.824;2024-03-02T07:06:00;5.70;1.00
8214;DHT22;4148;47.974;7.824;2024-03-02T07:08:28;5.70;1.00
8214;DHT22;4148;47.974;7.824;2024-03-02T07:10:56;5.70;1.00
8214;DHT22;4148;47.974;7.824;2024-03-02T07:13:24;5.80;1.00
8214;DHT22;4148;47.974;7.824;2024-03-02T07:15:53;5.80;1.00
8214;DHT22;4148;47.974;7.824;2024-03-02T07:18:39;5.90;1.00
8214;DHT22;4148;47.974;7.824;2024-03-02T07:21:08;6.00;1.00
8214;DHT22;4148;47.974;7.824;2024-03-02T07:23:36;6.10;1.00
8214;DHT22;4148;47.974;7.824;2024-03-02T07:26:04;6.10;99.90
8214;DHT22;4148;47.974;7.824;2024-03-02T07:28:35;6.20;1.00
8214;DHT22;4148;47.974;7.824;2024-03-02T07:31:05;6.20;1.00
8214;DHT22;4148;47.974;7.824;2024-03-02T07:33:33;6.40;70.60
8214;DHT22;4148;47.974;7.824;2024-03-02T07:36:02;6.40;99.90
8214;DHT22;4148;47.974;7.824;2024-03-02T07:38:31;6.40;1.00
8214;DHT22;4148;47.974;7.824;2024-03-02T07:41:00;6.50;99.90
8214;DHT22;4148;47.974;7.824;2024-03-02T07:43:28;6.70;99.90
8214;DHT22;4148;47.974;7.824;2024-03-02T07:45:56;6.80;99.90
8214;DHT22;4148;47.974;7.824;2024-03-02T07:48:26;6.90;99.90
8214;DHT22;4148;47.974;7.824;2024-03-02T07:50:54;6.90;99.90
8214;DHT22;4148;47.974;7.824;2024-03-02T07:53:22;7.00;99.90
8214;DHT22;4148;47.974;7.824;2024-03-02T07:55:50;7.10;1.00
8214;DHT22;4148;47.974;7.824;2024-03-02T07:58:18;7.10;33.30
8214;DHT22;4148;47.974;7.824;2024-03-02T08:00:46;7.10;1.00
8214;DHT22;4148;47.974;7.824;2024-03-02T08:03:16;7.20;1.00
8214;DHT22;4148;47.974;7.824;2024-03-02T08:05:46;7.30;99.90
8214;DHT22;4148;47.974;7.824;2024-03-02T08:08:13;7.40;99.90
8214;DHT22;4148;47.974;7.824;2024-03-02T08:10:41;7.50;99.90
8214;DHT22;4148;47.974;7.824;2024-03-02T08:13:09;7.50;1.00
8214;DHT22;4148;47.974;7.824;2024-03-02T08:15:37;7.70;99.90
8214;DHT22;4148;47.974;7.824;2024-03-02T08:18:05;7.80;1.00
8214;DHT22;4148;47.974;7.824;2024-03-02T08:20:34;7.90;1.00
8214;DHT22;4148;47.974;7.824;2024-03-02T08:23:04;8.10;99.90
8214;DHT22;4148;47.974;7.824;2024-03-02T08:25:32;8.30;93.50
8214;DHT22;4148;47.974;7.824;2024-03-02T08:28:00;8.50;99.90
8214;DHT22;4148;47.974;7.824;2024-03-02T08:30:28;8.80;1.00
8214;DHT22;4148;47.974;7.824;2024-03-02T08:32:56;9.00;99.90
8214;DHT22;4148;47.974;7.824;2024-03-02T08:35:24;9.30;99.90
8214;DHT22;4148;47.974;7.824;2024-03-02T08:37:52;9.60;27.70
8214;DHT22;4148;47.974;7.824;2024-03-02T08:40:21;9.90;1.00
8214;DHT22;4148;47.974;7.824;2024-03-02T08:42:49;10.10;1.00
8214;DHT22;4148;47.974;7.824;2024-03-02T08:45:17;10.20;1.00
8214;DHT22;4148;47.974;7.824;2024-03-02T08:47:47;10.40;1.00
8214;DHT22;4148;47.974;7.824;2024-03-02T08:50:16;10.80;1.00
8214;DHT22;4148;47.974;7.824;2024-03-02T08:52:44;11.60;1.00
8214;DHT22;4148;47.974;7.824;2024-03-02T08:55:12;12.60;5.80
8214;DHT22;4148;47.974;7.824;2024-03-02T09:00:10;14.40;99.90
8214;DHT22;4148;47.974;7.824;2024-03-02T09:02:38;15.60;99.90
8214;DHT22;4148;47.974;7.824;2024-03-02T09:05:07;16.50;99.90
8214;DHT22;4148;47.974;7.824;2024-03-02T09:07:35;17.10;99.90
8214;DHT22;4148;47.974;7.824;2024-03-02T09:10:05;17.60;99.90
8214;DHT22;4148;47.974;7.824;2024-03-02T09:12:34;17.90;99.90
8214;DHT22;4148;47.974;7.824;2024-03-02T09:15:04;18.50;99.90
8214;DHT22;4148;47.974;7.824;2024-03-02T09:17:33;18.90;99.90
8214;DHT22;4148;47.974;7.824;2024-03-02T09:20:01;19.00;99.90
8214;DHT22;4148;47.974;7.824;2024-03-02T09:22:30;19.30;99.90
8214;DHT22;4148;47.974;7.824;2024-03-02T09:27:27;19.80;99.90
8214;DHT22;4148;47.974;7.824;2024-03-02T09:29:55;19.70;99.90
8214;DHT22;4148;47.974;7.824;2024-03-02T09:32:24;19.40;99.90
8214;DHT22;4148;47.974;7.824;2024-03-02T09:34:52;19.30;99.90
8214;DHT22;4148;47.974;7.824;2024-03-02T09:37:20;19.30;99.90
8214;DHT22;4148;47.974;7.824;2024-03-02T09:39:48;19.60;99.90
8214;DHT22;4148;47.974;7.824;2024-03-02T09:42:16;20.00;99.90
8214;DHT22;4148;47.974;7.824;2024-03-02T09:44:45;19.90;99.90
8214;DHT22;4148;47.974;7.824;2024-03-02T09:47:14;20.50;99.90
8214;DHT22;4148;47.974;7.824;2024-03-02T09:49:43;20.70;99.90
8214;DHT22;4148;47.974;7.824;2024-03-02T09:52:13;21.10;99.90
8214;DHT22;4148;47.974;7.824;2024-03-02T09:54:41;21.60;99.90
8214;DHT22;4148;47.974;7.824;2024-03-02T09:57:09;21.70;99.90
8214;DHT22;4148;47.974;7.824;2024-03-02T09:59:37;22.10;99.90
8214;DHT22;4148;47.974;7.824;2024-03-02T10:02:05;22.10;99.90
8214;DHT22;4148;47.974;7.824;2024-03-02T10:04:34;22.40;99.90
8214;DHT22;4148;47.974;7.824;2024-03-02T10:07:12;22.40;99.90
8214;DHT22;4148;47.974;7.824;2024-03-02T10:09:40;22.40;99.90
8214;DHT22;4148;47.974;7.824;2024-03-02T10:12:10;22.40;99.90
8214;DHT22;4148;47.974;7.824;2024-03-02T10:14:39;22.60;99.90
8214;DHT22;4148;47.974;7.824;2024-03-02T10:17:08;22.80;99.90
8214;DHT22;4148;47.974;7.824;2024-03-02T10:19:37;23.00;99.90
8214;DHT22;4148;47.974;7.824;2024-03-02T10:22:07;22.90;99.90
8214;DHT22;4148;47.974;7.824;2024-03-02T10:24:38;22.60;99.90
8214;DHT22;4148;47.974;7.824;2024-03-02T10:27:10;22.40;99.90
8214;DHT22;4148;47.974;7.824;2024-03-02T10:29:39;21.90;99.90
8214;DHT22;4148;47.974;7.824;2024-03-02T10:32:11;22.00;99.90
8214;DHT22;4148;47.974;7.824;2024-03-02T10:34:40;22.10;99.90
8214;DHT22;4148;47.974;7.824;2024-03-02T10:37:09;22.30;99.90
8214;DHT22;4148;47.974;7.824;2024-03-02T10:39:39;22.40;99.90
8214;DHT22;4148;47.974;7.824;2024-03-02T10:42:08;22.70;99.90
8214;DHT22;4148;47.974;7.824;2024-03-02T10:44:36;22.80;99.90
8214;DHT22;4148;47.974;7.824;2024-03-02T10:47:09;23.00;99.90
8214;DHT22;4148;47.974;7.824;2024-03-02T10:49:42;23.10;99.90
8214;DHT22;4148;47.974;7.824;2024-03-02T10:52:10;23.30;99.90
8214;DHT22;4148;47.974;7.824;2024-03-02T10:54:39;23.60;99.90
8214;DHT22;4148;47.974;7.824;2024-03-02T10:57:07;23.80;99.90
8214;DHT22;4148;47.974;7.824;2024-03-02T10:59:44;24.10;99.90
8214;DHT22;4148;47.974;7.824;2024-03-02T11:02:17;24.10;99.90
8214;DHT22;4148;47.974;7.824;2024-03-02T11:04:45;23.90;99.90
8214;DHT22;4148;47.974;7.824;2024-03-02T11:07:14;23.50;99.90
8214;DHT22;4148;47.974;7.824;2024-03-02T11:09:51;23.30;99.90
8214;DHT22;4148;47.974;7.824;2024-03-02T11:12:26;23.50;99.90
8214;DHT22;4148;47.974;7.824;2024-03-02T11:14:56;23.90;99.90
8214;DHT22;4148;47.974;7.824;2024-03-02T11:17:26;23.70;99.90
8214;DHT22;4148;47.974;7.824;2024-03-02T11:19:55;23.50;99.90
8214;DHT22;4148;47.974;7.824;2024-03-02T11:22:25;23.90;99.90
8214;DHT22;4148;47.974;7.824;2024-03-02T11:24:54;23.90;99.90
8214;DHT22;4148;47.974;7.824;2024-03-02T11:27:58;23.20;99.90
8214;DHT22;4148;47.974;7.824;2024-03-02T11:30:49;23.30;99.90
8214;DHT22;4148;47.974;7.824;2024-03-02T11:33:23;23.50;99.90
8214;DHT22;4148;47.974;7.824;2024-03-02T11:35:55;23.80;99.90
8214;DHT22;4148;47.974;7.824;2024-03-02T11:38:28;23.90;99.90
8214;DHT22;4148;47.974;7.824;2024-03-02T11:40:57;24.10;99.90
8214;DHT22;4148;47.974;7.824;2024-03-02T11:43:28;23.50;99.90
8214;DHT22;4148;47.974;7.824;2024-03-02T11:46:00;23.60;99.90
8214;DHT22;4148;47.974;7.824;2024-03-02T11:48:31;23.90;99.90
8214;DHT22;4148;47.974;7.824;2024-03-02T11:51:00;23.70;99.90
8214;DHT22;4148;47.974;7.824;2024-03-02T11:53:28;22.80;99.90
8214;DHT22;4148;47.974;7.824;2024-03-02T11:56:03;22.30;99.90
8214;DHT22;4148;47.974;7.824;2024-03-02T11:58:36;21.70;99.90
8214;DHT22;4148;47.974;7.824;2024-03-02T12:01:04;21.10;99.90
8214;DHT22;4148;47.974;7.824;2024-03-02T12:03:34;20.30;99.90
8214;DHT22;4148;47.974;7.824;2024-03-02T12:06:03;19.80;99.90
8214;DHT22;4148;47.974;7.824;2024-03-02T12:08:32;19.40;99.90
8214;DHT22;4148;47.974;7.824;2024-03-02T12:11:02;19.10;99.90
8214;DHT22;4148;47.974;7.824;2024-03-02T12:13:31;19.10;99.90
8214;DHT22;4148;47.974;7.824;2024-03-02T12:16:00;19.00;99.90
8214;DHT22;4148;47.974;7.824;2024-03-02T12:18:28;19.00;99.90
8214;DHT22;4148;47.974;7.824;2024-03-02T12:20:56;18.60;99.90
8214;DHT22;4148;47.974;7.824;2024-03-02T12:23:25;18.50;99.90
8214;DHT22;4148;47.974;7.824;2024-03-02T12:25:53;18.20;99.90
8214;DHT22;4148;47.974;7.824;2024-03-02T12:28:23;18.10;99.90
8214;DHT22;4148;47.974;7.824;2024-03-02T12:30:51;18.30;99.90
8214;DHT22;4148;47.974;7.824;2024-03-02T12:33:20;18.50;99.90
8214;DHT22;4148;47.974;7.824;2024-03-02T12:35:49;18.70;99.90
8214;DHT22;4148;47.974;7.824;2024-03-02T12:38:17;19.00;99.90
8214;DHT22;4148;47.974;7.824;2024-03-02T12:40:48;19.00;99.90
8214;DHT22;4148;47.974;7.824;2024-03-02T12:43:16;19.20;99.90
8214;DHT22;4148;47.974;7.824;2024-03-02T12:45:45;19.40;99.90
8214;DHT22;4148;47.974;7.824;2024-03-02T12:48:13;19.30;99.90
8214;DHT22;4148;47.974;7.824;2024-03-02T12:50:42;19.10;99.90
8214;DHT22;4148;47.974;7.824;2024-03-02T12:53:14;19.00;99.90
8214;DHT22;4148;47.974;7.824;2024-03-02T12:55:43;19.00;99.90
8214;DHT22;4148;47.974;7.824;2024-03-02T12:58:17;19.10;99.90
8214;DHT22;4148;47.974;7.824;2024-03-02T13:00:46;19.10;99.90
8214;DHT22;4148;47.974;7.824;2024-03-02T13:03:14;19.00;99.90
8214;DHT22;4148;47.974;7.824;2024-03-02T13:05:48;18.80;99.90
8214;DHT22;4148;47.974;7.824;2024-03-02T13:08:16;18.60;99.90
8214;DHT22;4148;47.974;7.824;2024-03-02T13:10:44;18.50;99.90
8214;DHT22;4148;47.974;7.824;2024-03-02T13:13:12;18.30;99.90
8214;DHT22;4148;47.974;7.824;2024-03-02T13:15:41;18.20;99.90
8214;DHT22;4148;47.974;7.824;2024-03-02T13:18:11;18.20;99.90
8214;DHT22;4148;47.974;7.824;2024-03-02T13:20:40;18.10;99.90
8214;DHT22;4148;47.974;7.824;2024-03-02T13:23:08;17.80;99.90
8214;DHT22;4148;47.974;7.824;2024-03-02T13:25:36;17.60;99.90
8214;DHT22;4148;47.974;7.824;2024-03-02T13:28:05;17.60;99.90
8214;DHT22;4148;47.974;7.824;2024-03-02T13:30:34;17.50;99.90
8214;DHT22;4148;47.974;7.824;2024-03-02T13:33:02;17.30;99.90
8214;DHT22;4148;47.974;7.824;2024-03-02T13:35:31;17.10;99.90
8214;DHT22;4148;47.974;7.824;2024-03-02T13:37:59;17.10;99.90
8214;DHT22;4148;47.974;7.824;2024-03-02T13:40:27;17.00;99.90
8214;DHT22;4148;47.974;7.824;2024-03-02T13:42:55;17.00;99.90
8214;DHT22;4148;47.974;7.824;2024-03-02T13:45:23;16.80;99.90
8214;DHT22;4148;47.974;7.824;2024-03-02T13:47:52;16.80;99.90
8214;DHT22;4148;47.974;7.824;2024-03-02T13:50:20;16.70;99.90
8214;DHT22;4148;47.974;7.824;2024-03-02T13:55:17;16.70;99.90
8214;DHT22;4148;47.974;7.824;2024-03-02T13:57:46;16.60;99.90
8214;DHT22;4148;47.974;7.824;2024-03-02T14:00:16;16.70;99.90
8214;DHT22;4148;47.974;7.824;2024-03-02T14:02:45;16.70;99.90
8214;DHT22;4148;47.974;7.824;2024-03-02T14:05:13;16.80;99.90
8214;DHT22;4148;47.974;7.824;2024-03-02T14:07:42;16.70;99.90
8214;DHT22;4148;47.974;7.824;2024-03-02T14:10:11;16.60;99.90
8214;DHT22;4148;47.974;7.824;2024-03-02T14:12:41;16.60;99.90
8214;DHT22;4148;47.974;7.824;2024-03-02T14:15:09;16.60;99.90
8214;DHT22;4148;47.974;7.824;2024-03-02T14:17:37;16.60;99.90
8214;DHT22;4148;47.974;7.824;2024-03-02T14:20:06;16.50;99.90
8214;DHT22;4148;47.974;7.824;2024-03-02T14:22:37;16.40;99.90
8214;DHT22;4148;47.974;7.824;2024-03-02T14:25:05;16.40;99.90
8214;DHT22;4148;47.974;7.824;2024-03-02T14:27:35;16.30;99.90
8214;DHT22;4148;47.974;7.824;2024-03-02T14:30:23;16.30;99.90
8214;DHT22;4148;47.974;7.824;2024-03-02T14:32:51;16.20;99.90
8214;DHT22;4148;47.974;7.824;2024-03-02T14:35:19;16.20;99.90
8214;DHT22;4148;47.974;7.824;2024-03-02T14:37:49;16.00;99.90
8214;DHT22;4148;47.974;7.824;2024-03-02T14:40:17;16.10;99.90
8214;DHT22;4148;47.974;7.824;2024-03-02T14:42:46;16.00;99.90
8214;DHT22;4148;47.974;7.824;2024-03-02T14:45:15;15.90;99.90
8214;DHT22;4148;47.974;7.824;2024-03-02T14:47:43;15.80;99.90
8214;DHT22;4148;47.974;7.824;2024-03-02T14:50:11;15.80;99.90
8214;DHT22;4148;47.974;7.824;2024-03-02T14:52:39;15.70;99.90
8214;DHT22;4148;47.974;7.824;2024-03-02T14:55:11;15.60;99.90
8214;DHT22;4148;47.974;7.824;2024-03-02T14:57:40;15.60;99.90
8214;DHT22;4148;47.974;7.824;2024-03-02T15:00:10;15.50;99.90
8214;DHT22;4148;47.974;7.824;2024-03-02T15:02:38;15.50;99.90
8214;DHT22;4148;47.974;7.824;2024-03-02T15:05:07;15.50;99.90
8214;DHT22;4148;47.974;7.824;2024-03-02T15:07:35;15.50;99.90
8214;DHT22;4148;47.974;7.824;2024-03-02T15:10:06;15.50;99.90
8214;DHT22;4148;47.974;7.824;2024-03-02T15:12:35;15.40;99.90
8214;DHT22;4148;47.974;7.824;2024-03-02T15:15:04;15.40;99.90
8214;DHT22;4148;47.974;7.824;2024-03-02T15:17:33;15.50;99.90
8214;DHT22;4148;47.974;7.824;2024-03-02T15:20:01;15.40;99.90
8214;DHT22;4148;47.974;7.824;2024-03-02T15:22:31;15.40;99.90
8214;DHT22;4148;47.974;7.824;2024-03-02T15:24:59;15.50;99.90
8214;DHT22;4148;47.974;7.824;2024-03-02T15:27:27;15.50;99.90
8214;DHT22;4148;47.974;7.824;2024-03-02T15:29:55;15.40;99.90
8214;DHT22;4148;47.974;7.824;2024-03-02T15:32:24;15.30;99.90
8214;DHT22;4148;47.974;7.824;2024-03-02T15:34:54;15.40;99.90
8214;DHT22;4148;47.974;7.824;2024-03-02T15:37:23;15.50;99.90
8214;DHT22;4148;47.974;7.824;2024-03-02T15:39:51;15.50;99.90
8214;DHT22;4148;47.974;7.824;2024-03-02T15:42:19;15.50;99.90
8214;DHT22;4148;47.974;7.824;2024-03-02T15:44:50;15.60;99.90
8214;DHT22;4148;47.974;7.824;2024-03-02T15:47:17;15.60;99.90
8214;DHT22;4148;47.974;7.824;2024-03-02T15:49:45;15.60;99.90
8214;DHT22;4148;47.974;7.824;2024-03-02T15:52:15;15.50;99.90
8214;DHT22;4148;47.974;7.824;2024-03-02T15:54:45;15.60;99.90
8214;DHT22;4148;47.974;7.824;2024-03-02T15:57:13;15.50;99.90
8214;DHT22;4148;47.974;7.824;2024-03-02T15:59:41;15.50;99.90
8214;DHT22;4148;47.974;7.824;2024-03-02T16:02:09;15.50;99.90
8214;DHT22;4148;47.974;7.824;2024-03-02T16:04:38;15.50;99.90
8214;DHT22;4148;47.974;7.824;2024-03-02T16:07:06;15.40;99.90
8214;DHT22;4148;47.974;7.824;2024-03-02T16:09:35;15.40;99.90
8214;DHT22;4148;47.974;7.824;2024-03-02T16:12:04;15.30;99.90
8214;DHT22;4148;47.974;7.824;2024-03-02T16:14:32;15.20;99.90
8214;DHT22;4148;47.974;7.824;2024-03-02T16:17:01;15.10;99.90
8214;DHT22;4148;47.974;7.824;2024-03-02T16:19:30;15.20;99.90
8214;DHT22;4148;47.974;7.824;2024-03-02T16:21:59;15.00;99.90
8214;DHT22;4148;47.974;7.824;2024-03-02T16:24:27;15.00;99.90
8214;DHT22;4148;47.974;7.824;2024-03-02T16:26:56;14.90;99.90
8214;DHT22;4148;47.974;7.824;2024-03-02T16:29:24;14.80;99.90
8214;DHT22;4148;47.974;7.824;2024-03-02T16:31:52;14.70;99.90
8214;DHT22;4148;47.974;7.824;2024-03-02T16:34:20;14.60;99.90
